createdAt,value
2018-10-05T00:00:43.509Z,15.00
2018-10-05T00:04:47.651Z,15.00
2018-10-05T00:08:51.738Z,15.00
2018-10-05T00:12:55.931Z,15.00
2018-10-05T00:17:00.083Z,15.00
2018-10-05T00:21:04.155Z,15.00
2018-10-05T00:25:08.297Z,15.00
2018-10-05T00:29:12.992Z,14.90
2018-10-05T00:33:17.211Z,14.90
2018-10-05T00:37:21.317Z,14.90
2018-10-05T00:41:25.703Z,14.80
2018-10-05T00:45:29.899Z,14.80
2018-10-05T00:49:34.059Z,14.80
2018-10-05T00:53:38.128Z,14.70
2018-10-05T00:57:43.342Z,14.70
2018-10-05T01:01:47.893Z,14.70
2018-10-05T01:05:51.915Z,14.70
2018-10-05T01:09:55.976Z,14.70
2018-10-05T01:14:00.180Z,14.70
2018-10-05T01:18:04.335Z,14.60
2018-10-05T01:22:08.664Z,14.60
2018-10-05T01:26:12.947Z,14.60
2018-10-05T01:30:17.635Z,14.60
2018-10-05T01:34:21.698Z,14.60
2018-10-05T01:38:26.012Z,14.60
2018-10-05T01:42:30.163Z,14.60
2018-10-05T01:46:34.460Z,14.60
2018-10-05T01:50:38.510Z,14.50
2018-10-05T01:54:43.775Z,14.50
2018-10-05T01:58:47.977Z,14.50
2018-10-05T02:02:52.279Z,14.50
2018-10-05T02:06:56.484Z,14.50
2018-10-05T02:11:00.622Z,14.40
2018-10-05T02:15:05.143Z,14.40
2018-10-05T02:19:09.268Z,14.40
2018-10-05T02:23:14.528Z,14.40
2018-10-05T02:27:18.992Z,14.40
2018-10-05T02:31:23.093Z,14.40
2018-10-05T02:35:27.488Z,14.40
2018-10-05T02:39:32.296Z,14.40
2018-10-05T02:43:36.379Z,14.40
2018-10-05T02:47:40.796Z,14.40
2018-10-05T02:51:45.199Z,14.30
2018-10-05T02:55:49.515Z,14.30
2018-10-05T02:59:53.671Z,14.30
2018-10-05T03:03:57.756Z,14.30
2018-10-05T03:08:02.211Z,14.30
2018-10-05T03:12:06.459Z,14.30
2018-10-05T03:16:12.707Z,14.20
2018-10-05T03:20:17.103Z,14.20
2018-10-05T03:24:21.443Z,14.10
2018-10-05T03:28:25.586Z,14.00
2018-10-05T03:32:29.922Z,14.00
2018-10-05T03:36:34.213Z,14.00
2018-10-05T03:40:38.383Z,14.00
2018-10-05T03:44:44.683Z,14.00
2018-10-05T03:48:48.921Z,14.00
2018-10-05T03:52:59.065Z,14.00
2018-10-05T03:57:05.416Z,13.90
2018-10-05T04:01:09.888Z,13.80
2018-10-05T04:05:14.564Z,13.90
2018-10-05T04:09:19.798Z,13.90
2018-10-05T04:13:28.171Z,13.80
2018-10-05T04:17:32.552Z,13.80
2018-10-05T04:21:36.682Z,13.80
2018-10-05T04:25:40.833Z,13.80
2018-10-05T04:29:45.175Z,13.70
2018-10-05T04:33:54.719Z,13.80
2018-10-05T04:37:59.092Z,13.70
2018-10-05T04:42:03.251Z,13.70
2018-10-05T04:46:07.600Z,13.70
2018-10-05T04:50:11.989Z,13.60
2018-10-05T04:54:16.351Z,13.60
2018-10-05T04:58:20.657Z,13.60
2018-10-05T05:02:25.090Z,13.60
2018-10-05T05:06:29.823Z,13.50
2018-10-05T05:10:37.065Z,13.50
2018-10-05T05:14:43.213Z,13.40
2018-10-05T05:18:47.420Z,13.30
2018-10-05T05:22:53.174Z,13.20
2018-10-05T05:26:57.854Z,13.20
2018-10-05T05:31:02.143Z,13.20
2018-10-05T05:35:06.432Z,13.20
2018-10-05T05:39:11.644Z,13.20
2018-10-05T05:43:16.002Z,13.20
2018-10-05T05:47:20.937Z,13.20
2018-10-05T05:51:25.980Z,13.20
2018-10-05T05:55:30.083Z,13.20
2018-10-05T05:59:34.327Z,13.20
2018-10-05T06:03:39.576Z,13.20
2018-10-05T06:07:43.806Z,13.10
2018-10-05T06:11:48.174Z,13.20
2018-10-05T06:15:52.425Z,13.30
2018-10-05T06:19:56.594Z,13.30
2018-10-05T06:24:00.863Z,13.30
2018-10-05T06:28:04.956Z,13.30
2018-10-05T06:32:09.159Z,13.50
2018-10-05T06:36:13.384Z,13.50
2018-10-05T06:40:18.180Z,13.60
2018-10-05T06:44:22.864Z,13.70
2018-10-05T06:48:28.286Z,13.80
2018-10-05T06:52:32.426Z,14.10
2018-10-05T07:01:44.032Z,14.50
2018-10-05T07:05:50.154Z,14.60
2018-10-05T07:09:57.200Z,14.80
2018-10-05T07:14:01.563Z,14.80
2018-10-05T07:18:05.973Z,14.90
2018-10-05T07:22:10.314Z,15.10
2018-10-05T07:26:17.339Z,15.30
2018-10-05T07:30:22.069Z,15.50
2018-10-05T07:34:26.341Z,15.70
2018-10-05T07:38:30.729Z,15.90
2018-10-05T07:42:34.928Z,16.20
2018-10-05T07:46:39.172Z,16.40
2018-10-05T07:50:43.612Z,16.70
2018-10-05T07:54:47.701Z,17.00
2018-10-05T07:58:53.207Z,17.30
2018-10-05T08:02:57.527Z,17.50
2018-10-05T08:07:02.640Z,17.70
2018-10-05T08:11:07.400Z,18.20
2018-10-05T08:15:12.104Z,18.20
2018-10-05T08:19:16.454Z,18.30
2018-10-05T08:23:21.981Z,18.10
2018-10-05T08:27:26.777Z,18.50
2018-10-05T08:31:30.919Z,18.90
2018-10-05T08:35:47.036Z,18.80
2018-10-05T08:39:53.143Z,19.40
2018-10-05T08:43:57.507Z,19.90
2018-10-05T08:48:11.676Z,20.30
2018-10-05T08:52:15.895Z,20.70
2018-10-05T08:56:20.257Z,21.80
2018-10-05T09:00:24.740Z,22.50
2018-10-05T09:04:29.432Z,23.20
2018-10-05T09:08:33.851Z,23.20
2018-10-05T09:12:40.844Z,23.70
2018-10-05T09:16:44.997Z,23.90
2018-10-05T09:20:50.108Z,24.10
2018-10-05T09:24:55.131Z,23.40
2018-10-05T09:29:00.011Z,23.60
2018-10-05T09:33:04.169Z,23.90
2018-10-05T09:37:08.449Z,24.60
2018-10-05T09:41:12.727Z,24.00
2018-10-05T09:45:17.025Z,24.20
2018-10-05T09:49:23.583Z,24.70
2018-10-05T09:53:28.166Z,24.90
2018-10-05T09:57:35.552Z,24.60
2018-10-05T10:01:45.195Z,24.10
2018-10-05T10:05:50.630Z,22.70
2018-10-05T10:09:55.121Z,22.10
2018-10-05T10:14:01.141Z,21.80
2018-10-05T10:18:05.680Z,21.80
2018-10-05T10:22:09.808Z,21.20
2018-10-05T10:26:13.997Z,21.30
2018-10-05T10:30:18.090Z,21.00
2018-10-05T10:34:22.449Z,20.90
2018-10-05T10:38:27.104Z,20.90
2018-10-05T10:42:31.327Z,20.60
2018-10-05T10:46:35.501Z,20.60
2018-10-05T10:50:40.333Z,20.60
2018-10-05T10:54:44.642Z,20.30
2018-10-05T10:58:49.745Z,20.10
2018-10-05T11:02:53.990Z,20.20
2018-10-05T11:06:58.395Z,20.20
2018-10-05T11:11:02.755Z,20.10
2018-10-05T11:15:07.064Z,20.10
2018-10-05T11:19:11.267Z,20.00
2018-10-05T11:23:15.838Z,19.90
2018-10-05T11:27:21.090Z,19.80
2018-10-05T11:31:25.624Z,19.80
2018-10-05T11:35:29.764Z,19.70
2018-10-05T11:39:34.013Z,19.60
2018-10-05T11:43:38.128Z,19.60
2018-10-05T11:47:42.613Z,19.50
2018-10-05T11:51:46.761Z,19.60
2018-10-05T11:55:51.425Z,19.60
2018-10-05T11:59:55.896Z,19.60
2018-10-05T12:04:08.985Z,19.60
2018-10-05T12:08:13.144Z,19.50
2018-10-05T12:12:17.303Z,19.30
2018-10-05T12:16:21.488Z,19.30
2018-10-05T12:20:25.742Z,19.40
2018-10-05T12:24:31.114Z,19.40
2018-10-05T12:28:35.353Z,19.50
2018-10-05T12:32:39.504Z,19.40
2018-10-05T12:36:43.655Z,19.50
2018-10-05T12:40:47.840Z,19.60
2018-10-05T12:44:52.613Z,19.50
2018-10-05T12:48:57.124Z,19.70
2018-10-05T12:53:01.229Z,19.80
2018-10-05T12:57:06.803Z,19.80
2018-10-05T13:01:12.720Z,19.70
2018-10-05T13:05:17.040Z,19.70
2018-10-05T13:09:22.347Z,19.70
2018-10-05T13:13:28.351Z,19.80
2018-10-05T13:17:32.828Z,19.80
2018-10-05T13:21:37.032Z,19.80
2018-10-05T13:25:41.363Z,19.80
2018-10-05T13:29:46.580Z,19.80
2018-10-05T13:33:51.779Z,19.80
2018-10-05T13:37:56.641Z,19.80
2018-10-05T13:42:00.937Z,19.90
2018-10-05T13:46:05.273Z,19.80
2018-10-05T13:50:11.224Z,19.90
2018-10-05T13:54:15.648Z,19.90
2018-10-05T13:58:20.967Z,19.90
2018-10-05T14:02:25.295Z,19.90
2018-10-05T14:06:29.492Z,19.90
2018-10-05T14:10:40.094Z,19.90
2018-10-05T14:14:44.373Z,19.90
2018-10-05T14:18:51.367Z,19.90
2018-10-05T14:22:56.152Z,19.90
2018-10-05T14:27:00.265Z,20.00
2018-10-05T14:31:04.560Z,20.00
2018-10-05T14:35:08.759Z,20.00
2018-10-05T14:39:13.547Z,20.00
2018-10-05T14:43:17.957Z,20.00
2018-10-05T14:47:30.102Z,20.00
2018-10-05T14:51:36.580Z,20.10
2018-10-05T14:55:40.768Z,20.00
2018-10-05T14:59:45.269Z,20.00
2018-10-05T15:03:51.860Z,20.00
2018-10-05T15:07:56.523Z,20.10
2018-10-05T15:12:00.784Z,20.10
2018-10-05T15:16:05.229Z,20.00
2018-10-05T15:20:09.473Z,20.10
2018-10-05T15:24:13.784Z,20.10
2018-10-05T15:28:18.012Z,20.10
2018-10-05T15:32:22.789Z,20.10
2018-10-05T15:36:26.960Z,20.10
2018-10-05T15:40:31.079Z,20.10
2018-10-05T15:44:35.201Z,20.10
2018-10-05T15:48:39.412Z,20.10
2018-10-05T15:52:43.664Z,20.10
2018-10-05T15:56:48.081Z,20.10
2018-10-05T16:00:53.487Z,20.10
2018-10-05T16:04:57.667Z,20.10
2018-10-05T16:09:01.894Z,20.00
2018-10-05T16:13:06.657Z,20.00
2018-10-05T16:17:10.938Z,20.00
2018-10-05T16:21:15.213Z,19.90
2018-10-05T16:25:19.489Z,19.90
2018-10-05T16:29:23.850Z,19.80
2018-10-05T16:33:28.359Z,19.80
2018-10-05T16:37:32.759Z,19.80
2018-10-05T16:41:36.908Z,19.70
2018-10-05T16:45:41.283Z,19.70
2018-10-05T16:49:45.458Z,19.60
2018-10-05T16:53:49.851Z,19.60
2018-10-05T16:57:54.357Z,19.50
2018-10-05T17:01:58.569Z,19.50
2018-10-05T17:06:02.701Z,19.40
2018-10-05T17:10:07.166Z,19.30
2018-10-05T17:14:11.296Z,19.20
2018-10-05T17:18:15.520Z,19.20
2018-10-05T17:22:20.443Z,19.10
2018-10-05T17:26:24.697Z,19.10
2018-10-05T17:30:28.892Z,19.00
2018-10-05T17:34:33.171Z,18.90
2018-10-05T17:38:37.531Z,18.80
2018-10-05T17:42:41.943Z,18.80
2018-10-05T17:46:47.623Z,18.70
2018-10-05T17:50:54.726Z,18.60
2018-10-05T17:54:59.480Z,18.60
2018-10-05T17:59:03.775Z,18.40
2018-10-05T18:03:08.190Z,18.40
2018-10-05T18:07:12.403Z,18.30
2018-10-05T18:11:16.757Z,18.30
2018-10-05T18:15:22.107Z,18.20
2018-10-05T18:19:26.244Z,18.10
2018-10-05T18:23:30.509Z,18.10
2018-10-05T18:27:35.046Z,18.10
2018-10-05T18:31:39.295Z,18.10
2018-10-05T18:35:43.642Z,18.10
2018-10-05T18:39:47.893Z,18.10
2018-10-05T18:43:52.920Z,18.10
2018-10-05T18:47:58.572Z,17.80
2018-10-05T18:52:02.936Z,17.70
2018-10-05T18:56:18.682Z,17.50
2018-10-05T19:00:23.547Z,17.60
2018-10-05T19:04:27.804Z,17.50
2018-10-05T19:08:31.956Z,17.50
2018-10-05T19:12:36.244Z,17.40
2018-10-05T19:16:40.417Z,17.40
2018-10-05T19:20:44.656Z,17.40
2018-10-05T19:24:50.026Z,17.30
2018-10-05T19:28:55.302Z,17.20
2018-10-05T19:32:59.952Z,17.20
2018-10-05T19:37:04.335Z,17.20
2018-10-05T19:41:08.586Z,17.10
2018-10-05T19:45:12.868Z,17.00
2018-10-05T19:49:17.303Z,16.90
2018-10-05T19:53:21.805Z,16.90
2018-10-05T19:57:26.704Z,16.90
2018-10-05T20:01:30.974Z,16.90
2018-10-05T20:05:35.160Z,16.90
2018-10-05T20:09:39.491Z,16.70
2018-10-05T20:13:43.980Z,16.50
2018-10-05T20:17:48.387Z,16.20
2018-10-05T20:21:52.673Z,16.20
2018-10-05T20:25:57.084Z,16.20
2018-10-05T20:30:01.321Z,16.20
2018-10-05T20:34:05.593Z,16.10
2018-10-05T20:38:09.789Z,15.90
2018-10-05T20:42:13.927Z,15.90
2018-10-05T20:47:21.304Z,15.90
2018-10-05T20:51:25.571Z,16.10
2018-10-05T20:55:29.956Z,16.10
2018-10-05T20:59:34.213Z,16.00
2018-10-05T21:03:38.448Z,16.10
2018-10-05T21:07:42.573Z,16.00
2018-10-05T21:11:47.017Z,16.10
2018-10-05T21:15:52.535Z,16.10
2018-10-05T21:19:56.952Z,16.10
2018-10-05T21:24:01.173Z,16.20
2018-10-05T21:28:05.937Z,16.20
2018-10-05T21:32:10.232Z,16.20
2018-10-05T21:36:14.420Z,16.20
2018-10-05T21:40:19.900Z,16.20
2018-10-05T21:44:24.554Z,16.30
2018-10-05T21:48:28.854Z,16.30
2018-10-05T21:52:33.412Z,16.30
2018-10-05T21:56:37.566Z,16.30
2018-10-05T22:00:42.784Z,16.40
2018-10-05T22:04:46.942Z,16.40
2018-10-05T22:08:52.353Z,16.40
2018-10-05T22:12:56.974Z,16.40
2018-10-05T22:17:01.220Z,16.40
2018-10-05T22:21:05.614Z,16.40
2018-10-05T22:25:09.952Z,16.40
2018-10-05T22:29:14.100Z,16.40
2018-10-05T22:33:20.105Z,16.30
2018-10-05T22:37:24.382Z,16.30
2018-10-05T22:41:30.470Z,16.20
2018-10-05T22:45:34.822Z,16.20
2018-10-05T22:49:39.035Z,16.20
2018-10-05T22:53:43.379Z,16.10
2018-10-05T22:57:47.722Z,16.10
2018-10-05T23:01:52.082Z,16.00
2018-10-05T23:05:56.628Z,16.00
2018-10-05T23:10:00.825Z,16.00
2018-10-05T23:14:05.028Z,16.10
2018-10-05T23:18:09.316Z,16.00
2018-10-05T23:22:13.621Z,16.00
2018-10-05T23:26:17.823Z,16.00
2018-10-05T23:30:22.512Z,16.00
2018-10-05T23:34:26.981Z,15.90
2018-10-05T23:38:31.386Z,15.80
2018-10-05T23:42:35.719Z,15.70
2018-10-05T23:46:40.454Z,15.70
2018-10-05T23:50:44.677Z,15.60
2018-10-05T23:54:49.105Z,15.70
2018-10-05T23:58:53.346Z,15.60
